createdAt,value
2022-08-28T00:00:41.855Z,16.90
2022-08-28T00:03:10.385Z,16.90
2022-08-28T00:05:39.771Z,16.90
2022-08-28T00:08:08.813Z,16.90
2022-08-28T00:10:35.998Z,16.90
2022-08-28T00:13:02.955Z,16.90
2022-08-28T00:15:36.042Z,16.90
2022-08-28T00:18:04.048Z,16.90
2022-08-28T00:20:32.825Z,16.90
2022-08-28T00:23:00.410Z,16.90
2022-08-28T00:25:29.079Z,16.90
2022-08-28T00:27:58.310Z,16.90
2022-08-28T00:30:44.431Z,16.90
2022-08-28T00:33:16.371Z,16.90
2022-08-28T00:35:43.782Z,16.90
2022-08-28T00:38:12.022Z,16.90
2022-08-28T00:40:41.674Z,16.90
2022-08-28T00:43:09.824Z,16.90
2022-08-28T00:45:39.886Z,16.90
2022-08-28T00:48:07.267Z,16.90
2022-08-28T00:51:00.290Z,16.90
2022-08-28T00:53:32.690Z,16.90
2022-08-28T00:56:07.053Z,16.90
2022-08-28T00:58:41.577Z,16.90
2022-08-28T01:01:08.552Z,16.90
2022-08-28T01:03:36.706Z,16.90
2022-08-28T01:06:04.257Z,16.90
2022-08-28T01:08:31.456Z,16.90
2022-08-28T01:11:00.242Z,16.90
2022-08-28T01:13:28.024Z,16.90
2022-08-28T01:15:55.810Z,16.90
2022-08-28T01:18:23.292Z,16.90
2022-08-28T01:21:25.007Z,16.90
2022-08-28T01:24:12.293Z,16.90
2022-08-28T01:26:39.093Z,16.90
2022-08-28T01:29:08.615Z,16.90
2022-08-28T01:31:37.100Z,17.00
2022-08-28T01:34:04.561Z,17.00
2022-08-28T01:36:31.922Z,17.00
2022-08-28T01:39:05.679Z,17.00
2022-08-28T01:41:33.493Z,17.00
2022-08-28T01:44:00.280Z,17.00
2022-08-28T01:46:27.162Z,17.10
2022-08-28T01:48:54.100Z,17.00
2022-08-28T01:51:24.514Z,17.00
2022-08-28T01:53:51.925Z,17.10
2022-08-28T01:56:19.730Z,17.00
2022-08-28T01:58:48.220Z,17.00
2022-08-28T02:01:19.072Z,17.00
2022-08-28T02:03:46.600Z,17.00
2022-08-28T02:06:15.110Z,17.00
2022-08-28T02:08:42.311Z,17.00
2022-08-28T02:11:09.496Z,17.00
2022-08-28T02:13:38.503Z,17.00
2022-08-28T02:16:08.956Z,17.00
2022-08-28T02:18:37.854Z,17.00
2022-08-28T02:21:06.156Z,17.00
2022-08-28T02:23:33.057Z,17.00
2022-08-28T02:26:00.146Z,17.00
2022-08-28T02:28:27.087Z,17.00
2022-08-28T02:30:53.988Z,17.00
2022-08-28T02:33:20.897Z,17.00
2022-08-28T02:35:47.770Z,17.00
2022-08-28T02:38:14.542Z,17.00
2022-08-28T02:40:41.443Z,17.00
2022-08-28T02:43:08.441Z,17.00
2022-08-28T02:45:35.770Z,17.00
2022-08-28T02:48:03.296Z,17.00
2022-08-28T02:50:31.482Z,17.00
2022-08-28T02:52:58.708Z,17.00
2022-08-28T02:55:25.888Z,17.00
2022-08-28T02:57:54.564Z,17.00
2022-08-28T03:00:24.938Z,17.00
2022-08-28T03:02:52.051Z,17.00
2022-08-28T03:05:21.861Z,17.00
2022-08-28T03:07:50.257Z,17.00
2022-08-28T03:10:17.214Z,17.00
2022-08-28T03:12:44.113Z,17.00
2022-08-28T03:15:11.431Z,17.00
2022-08-28T03:17:38.327Z,17.00
2022-08-28T03:20:07.613Z,17.00
2022-08-28T03:22:53.009Z,17.00
2022-08-28T03:25:19.997Z,17.00
2022-08-28T03:27:46.785Z,17.00
2022-08-28T03:30:14.341Z,17.00
2022-08-28T03:32:41.537Z,17.00
2022-08-28T03:35:08.914Z,17.00
2022-08-28T03:37:36.392Z,17.00
2022-08-28T03:40:05.055Z,17.00
2022-08-28T03:42:32.019Z,17.00
2022-08-28T03:44:59.559Z,17.00
2022-08-28T03:47:28.317Z,17.00
2022-08-28T03:49:57.317Z,17.00
2022-08-28T03:52:24.666Z,17.00
2022-08-28T03:54:52.004Z,17.00
2022-08-28T03:57:20.437Z,17.00
2022-08-28T03:59:52.662Z,17.00
2022-08-28T04:02:20.588Z,17.00
2022-08-28T04:04:49.518Z,17.00
2022-08-28T04:07:17.661Z,17.00
2022-08-28T04:09:44.944Z,17.00
2022-08-28T04:12:12.119Z,17.00
2022-08-28T04:14:38.992Z,17.00
2022-08-28T04:17:06.785Z,17.00
2022-08-28T04:19:34.043Z,17.00
2022-08-28T04:22:01.341Z,17.00
2022-08-28T04:24:28.187Z,17.00
2022-08-28T04:26:55.087Z,17.00
2022-08-28T04:29:23.008Z,17.00
2022-08-28T04:31:50.475Z,17.00
2022-08-28T04:34:17.977Z,17.00
2022-08-28T04:36:45.089Z,17.00
2022-08-28T04:39:11.979Z,17.00
2022-08-28T04:41:39.121Z,17.00
2022-08-28T04:44:07.065Z,17.10
2022-08-28T04:46:34.038Z,17.10
2022-08-28T04:49:00.925Z,17.10
2022-08-28T04:51:28.774Z,17.10
2022-08-28T04:53:58.320Z,17.20
2022-08-28T04:56:26.492Z,17.20
2022-08-28T04:58:53.656Z,17.20
2022-08-28T05:01:26.858Z,17.20
2022-08-28T05:03:57.614Z,17.20
2022-08-28T05:06:26.872Z,17.20
2022-08-28T05:08:55.475Z,17.30
2022-08-28T05:11:33.129Z,17.30
2022-08-28T05:14:01.315Z,17.30
2022-08-28T05:16:28.170Z,17.30
2022-08-28T05:19:00.143Z,17.30
2022-08-28T05:21:28.246Z,17.40
2022-08-28T05:23:57.552Z,17.40
2022-08-28T05:26:27.148Z,17.40
2022-08-28T05:28:56.807Z,17.40
2022-08-28T05:31:24.543Z,17.40
2022-08-28T05:33:52.755Z,17.50
2022-08-28T05:36:22.752Z,17.50
2022-08-28T05:38:51.242Z,17.50
2022-08-28T05:41:24.257Z,17.60
2022-08-28T05:43:51.028Z,17.60
2022-08-28T05:46:18.013Z,17.70
2022-08-28T05:48:45.718Z,17.70
2022-08-28T05:51:15.556Z,17.70
2022-08-28T05:53:44.048Z,17.80
2022-08-28T05:56:13.476Z,17.80
2022-08-28T05:58:40.500Z,17.90
2022-08-28T06:01:15.336Z,17.90
2022-08-28T06:03:44.189Z,17.90
2022-08-28T06:06:12.552Z,17.90
2022-08-28T06:08:58.814Z,17.90
2022-08-28T06:11:29.585Z,17.80
2022-08-28T06:14:02.734Z,17.80
2022-08-28T06:16:31.643Z,17.80
2022-08-28T06:19:00.479Z,17.80
2022-08-28T06:21:27.989Z,17.90
2022-08-28T06:23:54.907Z,17.90
2022-08-28T06:26:21.907Z,17.90
2022-08-28T06:28:48.742Z,17.90
2022-08-28T06:31:25.069Z,18.00
2022-08-28T06:33:57.502Z,18.00
2022-08-28T06:36:27.281Z,18.10
2022-08-28T06:38:55.577Z,18.20
2022-08-28T06:41:22.314Z,18.20
2022-08-28T06:43:49.047Z,18.20
2022-08-28T06:46:16.383Z,18.20
2022-08-28T06:48:43.306Z,18.20
2022-08-28T06:51:12.037Z,18.30
2022-08-28T06:53:41.268Z,18.30
2022-08-28T06:56:13.671Z,18.40
2022-08-28T06:58:54.389Z,18.40
2022-08-28T07:01:24.357Z,18.50
2022-08-28T07:03:54.776Z,18.60
2022-08-28T07:06:22.004Z,18.70
2022-08-28T07:08:49.553Z,18.70
2022-08-28T07:11:26.206Z,18.80
2022-08-28T07:13:54.420Z,18.90
2022-08-28T07:16:26.249Z,19.00
2022-08-28T07:18:53.484Z,19.10
2022-08-28T07:21:20.688Z,19.10
2022-08-28T07:23:48.241Z,19.10
2022-08-28T07:26:22.545Z,19.20
2022-08-28T07:28:49.785Z,19.20
2022-08-28T07:31:20.025Z,19.20
2022-08-28T07:33:46.940Z,19.20
2022-08-28T07:36:29.774Z,19.20
2022-08-28T07:38:58.861Z,19.20
2022-08-28T07:41:32.284Z,19.10
2022-08-28T07:44:17.906Z,19.00
2022-08-28T07:46:45.368Z,19.00
2022-08-28T07:49:15.564Z,19.00
2022-08-28T07:51:42.587Z,19.00
2022-08-28T07:54:13.318Z,19.10
2022-08-28T07:56:44.638Z,19.10
2022-08-28T07:59:11.915Z,19.10
2022-08-28T08:01:43.206Z,19.10
2022-08-28T08:04:12.832Z,19.00
2022-08-28T08:06:41.089Z,19.00
2022-08-28T08:09:09.936Z,18.90
2022-08-28T08:11:36.875Z,18.80
2022-08-28T08:14:05.515Z,18.60
2022-08-28T08:16:39.099Z,18.40
2022-08-28T08:19:09.694Z,18.30
2022-08-28T08:21:37.527Z,18.10
2022-08-28T08:24:04.721Z,17.90
2022-08-28T08:26:31.520Z,17.90
2022-08-28T08:28:58.912Z,17.70
2022-08-28T08:31:35.270Z,17.70
2022-08-28T08:34:05.706Z,17.60
2022-08-28T08:36:33.951Z,17.60
2022-08-28T08:39:01.095Z,17.50
2022-08-28T08:41:48.097Z,17.50
2022-08-28T08:44:34.045Z,17.50
2022-08-28T08:47:25.836Z,17.40
2022-08-28T08:49:57.248Z,17.50
2022-08-28T08:52:49.963Z,17.50
2022-08-28T08:55:28.544Z,17.50
2022-08-28T08:58:30.508Z,17.60
2022-08-28T09:01:21.801Z,17.60
2022-08-28T09:04:16.449Z,17.60
2022-08-28T09:07:03.558Z,17.60
2022-08-28T09:09:50.340Z,17.70
2022-08-28T09:12:25.958Z,17.70
2022-08-28T09:15:12.942Z,17.70
2022-08-28T09:17:42.653Z,17.70
2022-08-28T09:20:13.273Z,17.70
2022-08-28T09:22:45.871Z,17.70
2022-08-28T09:25:33.891Z,17.70
2022-08-28T09:28:08.459Z,17.80
2022-08-28T09:30:43.430Z,17.80
2022-08-28T09:33:10.288Z,17.80
2022-08-28T09:35:37.992Z,17.80
2022-08-28T09:38:22.538Z,17.80
2022-08-28T09:41:30.100Z,17.80
2022-08-28T09:43:57.189Z,17.80
2022-08-28T09:46:31.804Z,17.90
2022-08-28T09:49:30.107Z,17.80
2022-08-28T09:52:01.691Z,17.90
2022-08-28T09:54:33.255Z,17.80
2022-08-28T09:57:01.148Z,17.80
2022-08-28T09:59:29.117Z,17.80
2022-08-28T10:02:28.023Z,17.80
2022-08-28T10:05:03.161Z,17.90
2022-08-28T10:07:54.958Z,17.90
2022-08-28T10:10:43.742Z,17.90
2022-08-28T10:13:23.903Z,17.90
2022-08-28T10:16:40.344Z,17.90
2022-08-28T10:19:19.247Z,17.90
2022-08-28T10:21:58.127Z,17.90
2022-08-28T10:24:46.274Z,17.90
2022-08-28T10:27:19.195Z,17.90
2022-08-28T10:30:05.890Z,18.00
2022-08-28T10:32:56.267Z,18.00
2022-08-28T10:35:34.906Z,18.00
2022-08-28T10:38:36.455Z,18.00
2022-08-28T10:41:26.840Z,18.10
2022-08-28T10:43:57.287Z,18.10
2022-08-28T10:46:49.128Z,18.00
2022-08-28T10:49:41.539Z,18.10
2022-08-28T10:52:25.848Z,18.10
2022-08-28T10:55:05.777Z,18.20
2022-08-28T10:57:41.407Z,18.30
2022-08-28T11:00:17.978Z,18.30
2022-08-28T11:02:57.042Z,18.40
2022-08-28T11:05:27.263Z,18.50
2022-08-28T11:07:58.984Z,18.60
2022-08-28T11:10:35.000Z,18.70
2022-08-28T11:13:02.863Z,18.80
2022-08-28T11:15:36.776Z,18.90
2022-08-28T11:18:16.251Z,19.00
2022-08-28T11:21:13.133Z,19.10
2022-08-28T11:24:08.232Z,19.20
2022-08-28T11:26:51.418Z,19.20
2022-08-28T11:30:03.615Z,19.30
2022-08-28T11:32:36.520Z,19.30
2022-08-28T11:35:27.024Z,19.50
2022-08-28T11:37:55.248Z,19.50
2022-08-28T11:40:28.402Z,19.60
2022-08-28T11:43:16.981Z,19.60
2022-08-28T11:45:47.498Z,19.60
2022-08-28T11:48:36.112Z,19.70
2022-08-28T11:51:07.855Z,19.80
2022-08-28T11:53:53.027Z,19.90
2022-08-28T11:56:47.690Z,19.90
2022-08-28T11:59:35.505Z,19.90
2022-08-28T12:02:39.920Z,19.80
2022-08-28T12:05:15.769Z,19.80
2022-08-28T12:07:45.249Z,19.70
2022-08-28T12:10:46.407Z,19.80
2022-08-28T12:13:59.285Z,19.70
2022-08-28T12:16:26.594Z,19.70
2022-08-28T12:18:53.417Z,19.80
2022-08-28T12:21:27.661Z,19.80
2022-08-28T12:23:59.176Z,19.90
2022-08-28T12:26:39.928Z,19.90
2022-08-28T12:29:21.949Z,19.90
2022-08-28T12:32:12.327Z,20.00
2022-08-28T12:34:57.236Z,20.00
2022-08-28T12:37:52.263Z,20.10
2022-08-28T12:40:52.787Z,20.20
2022-08-28T12:43:27.421Z,20.40
2022-08-28T12:46:02.623Z,20.50
2022-08-28T12:48:32.135Z,20.60
2022-08-28T12:51:08.517Z,20.70
2022-08-28T12:53:38.641Z,20.90
2022-08-28T12:56:05.573Z,21.00
2022-08-28T12:58:39.312Z,21.10
2022-08-28T13:01:31.726Z,21.30
2022-08-28T13:04:05.951Z,21.40
2022-08-28T13:06:36.736Z,21.60
2022-08-28T13:09:26.682Z,21.60
2022-08-28T13:11:54.180Z,21.70
2022-08-28T13:14:42.251Z,21.70
2022-08-28T13:17:11.935Z,21.80
2022-08-28T13:19:39.516Z,21.70
2022-08-28T13:22:28.586Z,21.70
2022-08-28T13:25:01.112Z,21.80
2022-08-28T13:27:29.629Z,21.80
2022-08-28T13:30:08.495Z,21.90
2022-08-28T13:32:39.785Z,21.90
2022-08-28T13:35:16.892Z,22.00
2022-08-28T13:37:48.539Z,22.00
2022-08-28T13:40:53.367Z,22.00
2022-08-28T13:43:10.183Z,22.00
2022-08-28T13:45:42.635Z,22.00
2022-08-28T13:48:19.361Z,22.10
2022-08-28T13:50:49.479Z,22.10
2022-08-28T13:53:19.884Z,22.20
2022-08-28T13:55:49.470Z,22.20
2022-08-28T13:58:16.649Z,22.20
2022-08-28T14:00:49.642Z,22.30
2022-08-28T14:03:35.733Z,22.40
2022-08-28T14:06:14.649Z,22.50
2022-08-28T14:08:43.698Z,22.70
2022-08-28T14:11:13.042Z,22.90
2022-08-28T14:13:46.903Z,23.00
2022-08-28T14:16:23.923Z,23.10
2022-08-28T14:18:52.769Z,23.30
2022-08-28T14:21:19.709Z,23.50
2022-08-28T14:23:46.716Z,23.50
2022-08-28T14:26:13.523Z,23.60
2022-08-28T14:28:40.355Z,23.50
2022-08-28T14:31:11.028Z,23.40
2022-08-28T14:33:41.675Z,23.30
2022-08-28T14:36:15.527Z,23.30
2022-08-28T14:38:42.377Z,23.20
2022-08-28T14:41:09.469Z,23.10
2022-08-28T14:43:36.370Z,23.10
2022-08-28T14:46:03.336Z,23.10
2022-08-28T14:48:30.361Z,23.10
2022-08-28T14:50:57.201Z,23.20
2022-08-28T14:53:24.003Z,23.20
2022-08-28T14:55:51.192Z,23.20
2022-08-28T14:58:19.473Z,23.20
2022-08-28T15:00:50.086Z,23.30
2022-08-28T15:03:18.611Z,23.30
2022-08-28T15:05:46.653Z,23.40
2022-08-28T15:08:15.890Z,23.40
2022-08-28T15:10:43.886Z,23.40
2022-08-28T15:13:11.230Z,23.40
2022-08-28T15:15:42.319Z,23.40
2022-08-28T15:18:10.766Z,23.50
2022-08-28T15:20:47.362Z,23.50
2022-08-28T15:23:15.325Z,23.50
2022-08-28T15:25:42.649Z,23.60
2022-08-28T15:28:09.618Z,23.70
2022-08-28T15:30:36.930Z,23.90
2022-08-28T15:33:04.137Z,24.00
2022-08-28T15:35:31.456Z,24.10
2022-08-28T15:37:58.485Z,24.20
2022-08-28T15:40:44.007Z,24.20
2022-08-28T15:43:10.869Z,24.10
2022-08-28T15:45:39.460Z,24.00
2022-08-28T15:48:07.261Z,23.70
2022-08-28T15:50:34.712Z,23.50
2022-08-28T15:53:02.013Z,23.30
2022-08-28T15:55:29.282Z,23.10
2022-08-28T15:57:57.051Z,23.00
2022-08-28T16:00:23.913Z,22.90
2022-08-28T16:02:50.956Z,22.70
2022-08-28T16:05:18.170Z,22.50
2022-08-28T16:07:44.960Z,22.40
2022-08-28T16:10:13.766Z,22.30
2022-08-28T16:12:41.218Z,22.20
2022-08-28T16:15:09.015Z,22.10
2022-08-28T16:17:36.019Z,21.90
2022-08-28T16:20:12.967Z,21.80
2022-08-28T16:22:41.294Z,21.70
2022-08-28T16:25:09.723Z,21.60
2022-08-28T16:27:36.749Z,21.40
2022-08-28T16:30:05.180Z,21.40
2022-08-28T16:32:32.143Z,21.20
2022-08-28T16:34:58.935Z,21.10
2022-08-28T16:37:27.129Z,21.00
2022-08-28T16:40:08.932Z,20.90
2022-08-28T16:42:35.920Z,20.90
2022-08-28T16:45:04.352Z,20.80
2022-08-28T16:47:33.845Z,20.70
2022-08-28T16:50:02.989Z,20.60
2022-08-28T16:52:29.725Z,20.60
2022-08-28T16:54:56.481Z,20.50
2022-08-28T16:57:23.813Z,20.40
2022-08-28T16:59:52.897Z,20.40
2022-08-28T17:02:24.867Z,20.30
2022-08-28T17:04:55.535Z,20.30
2022-08-28T17:07:22.869Z,20.20
2022-08-28T17:09:49.615Z,20.10
2022-08-28T17:12:16.755Z,20.10
2022-08-28T17:14:43.952Z,20.10
2022-08-28T17:17:11.204Z,20.00
2022-08-28T17:19:38.460Z,19.90
2022-08-28T17:22:23.791Z,19.80
2022-08-28T17:24:54.223Z,19.70
2022-08-28T17:27:22.797Z,19.60
2022-08-28T17:29:50.541Z,19.60
2022-08-28T17:32:17.584Z,19.50
2022-08-28T17:34:44.567Z,19.40
2022-08-28T17:37:11.410Z,19.30
2022-08-28T17:39:38.388Z,19.20
2022-08-28T17:42:05.204Z,19.20
2022-08-28T17:44:31.966Z,19.10
2022-08-28T17:46:58.726Z,19.00
2022-08-28T17:49:26.178Z,19.00
2022-08-28T17:51:53.396Z,18.90
2022-08-28T17:54:22.625Z,18.80
2022-08-28T17:56:50.177Z,18.80
2022-08-28T17:59:18.191Z,18.80
2022-08-28T18:01:46.856Z,18.70
2022-08-28T18:04:18.942Z,18.70
2022-08-28T18:06:49.048Z,18.60
2022-08-28T18:09:15.803Z,18.60
2022-08-28T18:11:43.233Z,18.50
2022-08-28T18:14:10.032Z,18.50
2022-08-28T18:16:37.974Z,18.40
2022-08-28T18:19:07.952Z,18.30
2022-08-28T18:21:34.763Z,18.20
2022-08-28T18:24:01.671Z,18.20
2022-08-28T18:26:28.575Z,18.10
2022-08-28T18:28:56.111Z,18.00
2022-08-28T18:31:23.251Z,17.90
2022-08-28T18:33:51.293Z,17.90
2022-08-28T18:36:18.145Z,17.80
2022-08-28T18:38:44.972Z,17.80
2022-08-28T18:41:12.147Z,17.70
2022-08-28T18:43:39.059Z,17.70
2022-08-28T18:46:08.909Z,17.60
2022-08-28T18:48:37.028Z,17.60
2022-08-28T18:51:10.656Z,17.60
2022-08-28T18:53:37.612Z,17.60
2022-08-28T18:56:06.274Z,17.50
2022-08-28T18:58:33.783Z,17.50
2022-08-28T19:01:02.252Z,17.50
2022-08-28T19:03:29.388Z,17.50
2022-08-28T19:05:56.674Z,17.40
2022-08-28T19:08:25.292Z,17.40
2022-08-28T19:10:52.584Z,17.40
2022-08-28T19:13:19.790Z,17.40
2022-08-28T19:15:52.526Z,17.40
2022-08-28T19:18:20.029Z,17.40
2022-08-28T19:20:47.209Z,17.40
2022-08-28T19:23:17.355Z,17.40
2022-08-28T19:25:45.017Z,17.40
2022-08-28T19:28:11.776Z,17.40
2022-08-28T19:30:38.538Z,17.40
2022-08-28T19:33:06.048Z,17.40
2022-08-28T19:35:33.839Z,17.40
2022-08-28T19:38:01.021Z,17.40
2022-08-28T19:40:27.962Z,17.40
2022-08-28T19:42:54.820Z,17.40
2022-08-28T19:45:22.111Z,17.40
2022-08-28T19:47:49.097Z,17.40
2022-08-28T19:50:16.055Z,17.30
2022-08-28T19:52:44.906Z,17.30
2022-08-28T19:55:29.954Z,17.20
2022-08-28T19:57:57.020Z,17.20
2022-08-28T20:00:26.435Z,17.20
2022-08-28T20:02:53.280Z,17.20
2022-08-28T20:05:21.013Z,17.20
2022-08-28T20:07:48.124Z,17.20
2022-08-28T20:10:15.718Z,17.20
2022-08-28T20:12:48.352Z,17.10
2022-08-28T20:15:18.698Z,17.10
2022-08-28T20:17:50.105Z,17.10
2022-08-28T20:20:21.204Z,17.10
2022-08-28T20:22:48.917Z,17.00
2022-08-28T20:25:20.963Z,17.00
2022-08-28T20:27:47.722Z,17.00
2022-08-28T20:30:16.631Z,17.00
2022-08-28T20:32:43.456Z,16.90
2022-08-28T20:35:12.552Z,16.90
2022-08-28T20:37:45.088Z,16.80
2022-08-28T20:40:15.919Z,16.80
2022-08-28T20:42:43.031Z,16.70
2022-08-28T20:45:10.763Z,16.70
2022-08-28T20:47:37.532Z,16.70
2022-08-28T20:50:04.921Z,16.60
2022-08-28T20:52:31.657Z,16.60
2022-08-28T20:54:58.575Z,16.50
2022-08-28T20:57:25.489Z,16.50
2022-08-28T20:59:54.035Z,16.50
2022-08-28T21:02:23.921Z,16.40
2022-08-28T21:04:51.189Z,16.40
2022-08-28T21:07:19.833Z,16.40
2022-08-28T21:10:05.869Z,16.30
2022-08-28T21:12:37.821Z,16.30
2022-08-28T21:15:07.146Z,16.30
2022-08-28T21:17:33.916Z,16.20
2022-08-28T21:20:06.537Z,16.20
2022-08-28T21:22:35.282Z,16.10
2022-08-28T21:25:04.879Z,16.10
2022-08-28T21:27:31.642Z,16.10
2022-08-28T21:29:59.659Z,16.10
2022-08-28T21:32:27.715Z,16.00
2022-08-28T21:34:55.127Z,16.00
2022-08-28T21:37:22.965Z,16.00
2022-08-28T21:39:49.787Z,16.00
2022-08-28T21:42:16.679Z,16.00
2022-08-28T21:44:48.377Z,15.90
2022-08-28T21:47:23.114Z,15.90
2022-08-28T21:49:51.555Z,15.80
2022-08-28T21:52:19.255Z,15.80
2022-08-28T21:54:46.270Z,15.80
2022-08-28T21:57:13.012Z,15.70
2022-08-28T21:59:40.003Z,15.70
2022-08-28T22:02:07.163Z,15.70
2022-08-28T22:04:34.820Z,15.70
2022-08-28T22:07:01.996Z,15.70
2022-08-28T22:09:29.091Z,15.60
2022-08-28T22:11:55.953Z,15.60
2022-08-28T22:14:24.547Z,15.60
2022-08-28T22:16:51.311Z,15.60
2022-08-28T22:19:18.099Z,15.60
2022-08-28T22:22:03.324Z,15.60
2022-08-28T22:24:30.180Z,15.50
2022-08-28T22:26:57.329Z,15.60
2022-08-28T22:29:24.857Z,15.50
2022-08-28T22:31:52.519Z,15.50
2022-08-28T22:34:19.443Z,15.50
2022-08-28T22:36:46.213Z,15.50
2022-08-28T22:39:12.936Z,15.50
2022-08-28T22:41:40.402Z,15.50
2022-08-28T22:44:07.743Z,15.50
2022-08-28T22:46:35.881Z,15.50
2022-08-28T22:49:02.832Z,15.50
2022-08-28T22:51:29.997Z,15.40
2022-08-28T22:53:56.857Z,15.40
2022-08-28T22:56:23.927Z,15.40
2022-08-28T22:58:50.776Z,15.40
2022-08-28T23:01:20.841Z,15.40
2022-08-28T23:03:48.455Z,15.40
2022-08-28T23:06:15.660Z,15.30
2022-08-28T23:08:43.251Z,15.30
2022-08-28T23:11:10.785Z,15.30
2022-08-28T23:13:38.361Z,15.20
2022-08-28T23:16:06.116Z,15.20
2022-08-28T23:18:51.892Z,15.20
2022-08-28T23:21:23.099Z,15.20
2022-08-28T23:23:51.422Z,15.20
2022-08-28T23:26:18.603Z,15.20
2022-08-28T23:28:45.489Z,15.10
2022-08-28T23:31:12.460Z,15.10
2022-08-28T23:33:39.304Z,15.10
2022-08-28T23:36:06.503Z,15.10
2022-08-28T23:38:36.669Z,15.10
2022-08-28T23:41:04.923Z,15.00
2022-08-28T23:43:32.096Z,15.10
2022-08-28T23:45:59.147Z,15.10
2022-08-28T23:48:26.887Z,15.00
2022-08-28T23:50:55.720Z,15.00
2022-08-28T23:53:22.555Z,15.00
2022-08-28T23:55:49.917Z,14.90
2022-08-28T23:58:20.669Z,14.90
